sensor_id;sensor_type;location;lat;lon;timestamp;P1;durP1;ratioP1;P2;durP2;ratioP2
22904;SDS011;11619;50.140;8.518;2022-12-07T00:01:39;21.10;;;16.75;;
22904;SDS011;11619;50.140;8.518;2022-12-07T00:04:08;22.23;;;16.67;;
22904;SDS011;11619;50.140;8.518;2022-12-07T00:06:44;21.60;;;17.08;;
22904;SDS011;11619;50.140;8.518;2022-12-07T00:09:12;19.50;;;16.45;;
22904;SDS011;11619;50.140;8.518;2022-12-07T00:11:40;23.67;;;18.10;;
22904;SDS011;11619;50.140;8.518;2022-12-07T00:14:10;22.38;;;17.50;;
22904;SDS011;11619;50.140;8.518;2022-12-07T00:16:38;23.30;;;18.60;;
22904;SDS011;11619;50.140;8.518;2022-12-07T00:19:04;22.55;;;17.20;;
22904;SDS011;11619;50.140;8.518;2022-12-07T00:21:31;21.77;;;17.02;;
22904;SDS011;11619;50.140;8.518;2022-12-07T00:24:00;20.80;;;16.88;;
22904;SDS011;11619;50.140;8.518;2022-12-07T00:26:30;20.52;;;16.30;;
22904;SDS011;11619;50.140;8.518;2022-12-07T00:28:59;23.88;;;18.10;;
22904;SDS011;11619;50.140;8.518;2022-12-07T00:31:28;25.52;;;17.95;;
22904;SDS011;11619;50.140;8.518;2022-12-07T00:33:57;20.58;;;16.88;;
22904;SDS011;11619;50.140;8.518;2022-12-07T00:36:24;21.92;;;17.05;;
22904;SDS011;11619;50.140;8.518;2022-12-07T00:38:52;23.83;;;17.13;;
22904;SDS011;11619;50.140;8.518;2022-12-07T00:41:20;22.52;;;16.20;;
22904;SDS011;11619;50.140;8.518;2022-12-07T00:43:48;22.10;;;17.63;;
22904;SDS011;11619;50.140;8.518;2022-12-07T00:46:15;23.85;;;18.48;;
22904;SDS011;11619;50.140;8.518;2022-12-07T00:48:42;24.27;;;17.65;;
22904;SDS011;11619;50.140;8.518;2022-12-07T00:51:12;20.70;;;17.13;;
22904;SDS011;11619;50.140;8.518;2022-12-07T00:53:39;21.58;;;16.95;;
22904;SDS011;11619;50.140;8.518;2022-12-07T00:56:08;23.98;;;18.55;;
22904;SDS011;11619;50.140;8.518;2022-12-07T00:58:36;22.20;;;16.95;;
22904;SDS011;11619;50.140;8.518;2022-12-07T01:01:02;21.55;;;17.98;;
22904;SDS011;11619;50.140;8.518;2022-12-07T01:03:30;21.95;;;17.02;;
22904;SDS011;11619;50.140;8.518;2022-12-07T01:05:56;21.85;;;17.05;;
22904;SDS011;11619;50.140;8.518;2022-12-07T01:08:23;24.73;;;17.90;;
22904;SDS011;11619;50.140;8.518;2022-12-07T01:11:01;24.08;;;17.95;;
22904;SDS011;11619;50.140;8.518;2022-12-07T01:13:29;20.63;;;16.75;;
22904;SDS011;11619;50.140;8.518;2022-12-07T01:15:58;25.77;;;16.98;;
22904;SDS011;11619;50.140;8.518;2022-12-07T01:18:26;21.65;;;16.73;;
22904;SDS011;11619;50.140;8.518;2022-12-07T01:21:00;23.42;;;17.13;;
22904;SDS011;11619;50.140;8.518;2022-12-07T01:23:31;22.33;;;16.70;;
22904;SDS011;11619;50.140;8.518;2022-12-07T01:26:00;22.98;;;16.52;;
22904;SDS011;11619;50.140;8.518;2022-12-07T01:28:27;20.15;;;16.63;;
22904;SDS011;11619;50.140;8.518;2022-12-07T01:30:55;20.48;;;15.85;;
22904;SDS011;11619;50.140;8.518;2022-12-07T01:33:26;18.45;;;15.45;;
22904;SDS011;11619;50.140;8.518;2022-12-07T01:35:53;21.10;;;15.50;;
22904;SDS011;11619;50.140;8.518;2022-12-07T01:38:20;20.08;;;15.68;;
22904;SDS011;11619;50.140;8.518;2022-12-07T01:40:53;22.25;;;15.50;;
22904;SDS011;11619;50.140;8.518;2022-12-07T01:43:20;23.40;;;15.68;;
22904;SDS011;11619;50.140;8.518;2022-12-07T01:45:47;19.42;;;15.05;;
22904;SDS011;11619;50.140;8.518;2022-12-07T01:48:14;21.30;;;15.40;;
22904;SDS011;11619;50.140;8.518;2022-12-07T01:50:43;17.90;;;14.18;;
22904;SDS011;11619;50.140;8.518;2022-12-07T01:53:10;18.08;;;14.32;;
22904;SDS011;11619;50.140;8.518;2022-12-07T01:55:38;18.67;;;14.00;;
22904;SDS011;11619;50.140;8.518;2022-12-07T01:58:08;19.00;;;13.73;;
22904;SDS011;11619;50.140;8.518;2022-12-07T02:00:35;19.27;;;14.23;;
22904;SDS011;11619;50.140;8.518;2022-12-07T02:03:04;20.88;;;14.40;;
22904;SDS011;11619;50.140;8.518;2022-12-07T02:05:34;21.00;;;14.55;;
22904;SDS011;11619;50.140;8.518;2022-12-07T02:08:01;19.98;;;14.52;;
22904;SDS011;11619;50.140;8.518;2022-12-07T02:10:30;19.70;;;13.75;;
22904;SDS011;11619;50.140;8.518;2022-12-07T02:15:39;17.42;;;13.57;;
22904;SDS011;11619;50.140;8.518;2022-12-07T02:27:02;17.67;;;13.57;;
22904;SDS011;11619;50.140;8.518;2022-12-07T02:29:40;17.75;;;12.75;;
22904;SDS011;11619;50.140;8.518;2022-12-07T02:35:06;16.98;;;13.10;;
22904;SDS011;11619;50.140;8.518;2022-12-07T02:40:14;18.38;;;13.43;;
22904;SDS011;11619;50.140;8.518;2022-12-07T02:42:49;17.58;;;14.07;;
22904;SDS011;11619;50.140;8.518;2022-12-07T02:45:18;17.42;;;12.65;;
22904;SDS011;11619;50.140;8.518;2022-12-07T02:47:48;17.45;;;13.70;;
22904;SDS011;11619;50.140;8.518;2022-12-07T02:50:19;19.08;;;13.63;;
22904;SDS011;11619;50.140;8.518;2022-12-07T02:52:46;17.00;;;13.38;;
22904;SDS011;11619;50.140;8.518;2022-12-07T02:55:13;18.05;;;13.43;;
22904;SDS011;11619;50.140;8.518;2022-12-07T02:57:45;17.55;;;12.50;;
22904;SDS011;11619;50.140;8.518;2022-12-07T03:00:37;19.77;;;13.27;;
22904;SDS011;11619;50.140;8.518;2022-12-07T03:03:10;18.70;;;13.60;;
22904;SDS011;11619;50.140;8.518;2022-12-07T03:05:51;17.48;;;13.07;;
22904;SDS011;11619;50.140;8.518;2022-12-07T03:13:55;16.25;;;12.70;;
22904;SDS011;11619;50.140;8.518;2022-12-07T03:16:30;17.73;;;13.02;;
22904;SDS011;11619;50.140;8.518;2022-12-07T03:19:01;17.77;;;13.35;;
22904;SDS011;11619;50.140;8.518;2022-12-07T03:21:32;16.95;;;12.18;;
22904;SDS011;11619;50.140;8.518;2022-12-07T03:24:01;17.30;;;12.45;;
22904;SDS011;11619;50.140;8.518;2022-12-07T03:26:32;16.23;;;12.60;;
22904;SDS011;11619;50.140;8.518;2022-12-07T03:29:01;18.27;;;12.32;;
22904;SDS011;11619;50.140;8.518;2022-12-07T03:31:32;15.27;;;11.82;;
22904;SDS011;11619;50.140;8.518;2022-12-07T03:34:07;16.60;;;12.02;;
22904;SDS011;11619;50.140;8.518;2022-12-07T03:36:39;14.45;;;12.63;;
22904;SDS011;11619;50.140;8.518;2022-12-07T03:39:56;15.32;;;12.27;;
22904;SDS011;11619;50.140;8.518;2022-12-07T03:42:06;19.27;;;12.45;;
22904;SDS011;11619;50.140;8.518;2022-12-07T03:44:34;14.95;;;11.50;;
22904;SDS011;11619;50.140;8.518;2022-12-07T03:49:50;17.08;;;11.82;;
22904;SDS011;11619;50.140;8.518;2022-12-07T03:55:10;15.65;;;11.27;;
22904;SDS011;11619;50.140;8.518;2022-12-07T03:57:40;15.32;;;11.52;;
22904;SDS011;11619;50.140;8.518;2022-12-07T04:00:09;14.82;;;11.27;;
22904;SDS011;11619;50.140;8.518;2022-12-07T04:02:36;15.05;;;11.48;;
22904;SDS011;11619;50.140;8.518;2022-12-07T04:05:03;13.88;;;11.07;;
22904;SDS011;11619;50.140;8.518;2022-12-07T04:07:29;16.50;;;11.52;;
22904;SDS011;11619;50.140;8.518;2022-12-07T04:09:56;14.63;;;11.48;;
22904;SDS011;11619;50.140;8.518;2022-12-07T04:12:22;16.20;;;12.18;;
22904;SDS011;11619;50.140;8.518;2022-12-07T04:14:49;16.85;;;11.82;;
22904;SDS011;11619;50.140;8.518;2022-12-07T04:17:15;14.45;;;10.85;;
22904;SDS011;11619;50.140;8.518;2022-12-07T04:19:42;14.27;;;11.48;;
22904;SDS011;11619;50.140;8.518;2022-12-07T04:22:08;16.63;;;12.57;;
22904;SDS011;11619;50.140;8.518;2022-12-07T04:24:35;14.45;;;11.35;;
22904;SDS011;11619;50.140;8.518;2022-12-07T04:27:02;16.00;;;11.75;;
22904;SDS011;11619;50.140;8.518;2022-12-07T04:29:29;14.40;;;12.35;;
22904;SDS011;11619;50.140;8.518;2022-12-07T04:31:55;15.35;;;11.38;;
22904;SDS011;11619;50.140;8.518;2022-12-07T04:34:22;13.80;;;11.60;;
22904;SDS011;11619;50.140;8.518;2022-12-07T04:36:48;15.18;;;11.38;;
22904;SDS011;11619;50.140;8.518;2022-12-07T04:39:22;14.30;;;11.80;;
22904;SDS011;11619;50.140;8.518;2022-12-07T04:41:49;15.73;;;11.80;;
22904;SDS011;11619;50.140;8.518;2022-12-07T04:44:16;17.55;;;11.70;;
22904;SDS011;11619;50.140;8.518;2022-12-07T04:46:43;15.13;;;12.35;;
22904;SDS011;11619;50.140;8.518;2022-12-07T04:49:10;16.58;;;11.95;;
22904;SDS011;11619;50.140;8.518;2022-12-07T04:51:37;18.15;;;12.73;;
22904;SDS011;11619;50.140;8.518;2022-12-07T04:54:04;15.43;;;12.77;;
22904;SDS011;11619;50.140;8.518;2022-12-07T04:56:30;19.75;;;13.40;;
22904;SDS011;11619;50.140;8.518;2022-12-07T04:58:57;17.67;;;13.75;;
22904;SDS011;11619;50.140;8.518;2022-12-07T05:01:23;16.40;;;12.60;;
22904;SDS011;11619;50.140;8.518;2022-12-07T05:03:50;14.88;;;12.07;;
22904;SDS011;11619;50.140;8.518;2022-12-07T05:06:16;13.85;;;12.18;;
22904;SDS011;11619;50.140;8.518;2022-12-07T05:08:43;16.48;;;12.57;;
22904;SDS011;11619;50.140;8.518;2022-12-07T05:11:09;16.45;;;12.88;;
22904;SDS011;11619;50.140;8.518;2022-12-07T05:13:56;14.73;;;12.93;;
22904;SDS011;11619;50.140;8.518;2022-12-07T05:16:23;16.33;;;12.20;;
22904;SDS011;11619;50.140;8.518;2022-12-07T05:18:49;18.38;;;14.30;;
22904;SDS011;11619;50.140;8.518;2022-12-07T05:21:16;17.42;;;14.10;;
22904;SDS011;11619;50.140;8.518;2022-12-07T05:23:42;18.98;;;13.57;;
22904;SDS011;11619;50.140;8.518;2022-12-07T05:26:08;18.17;;;12.75;;
22904;SDS011;11619;50.140;8.518;2022-12-07T05:28:35;17.08;;;13.18;;
22904;SDS011;11619;50.140;8.518;2022-12-07T05:31:01;14.68;;;12.18;;
22904;SDS011;11619;50.140;8.518;2022-12-07T05:33:28;14.73;;;12.45;;
22904;SDS011;11619;50.140;8.518;2022-12-07T05:35:54;15.02;;;12.85;;
22904;SDS011;11619;50.140;8.518;2022-12-07T05:38:20;16.48;;;12.95;;
22904;SDS011;11619;50.140;8.518;2022-12-07T05:40:47;15.40;;;12.25;;
22904;SDS011;11619;50.140;8.518;2022-12-07T05:43:13;15.98;;;13.30;;
22904;SDS011;11619;50.140;8.518;2022-12-07T05:45:39;15.05;;;12.50;;
22904;SDS011;11619;50.140;8.518;2022-12-07T05:48:06;15.40;;;12.55;;
22904;SDS011;11619;50.140;8.518;2022-12-07T05:50:32;15.00;;;12.15;;
22904;SDS011;11619;50.140;8.518;2022-12-07T05:52:58;16.00;;;13.38;;
22904;SDS011;11619;50.140;8.518;2022-12-07T05:55:25;19.38;;;13.45;;
22904;SDS011;11619;50.140;8.518;2022-12-07T05:57:51;18.80;;;13.55;;
22904;SDS011;11619;50.140;8.518;2022-12-07T06:00:36;14.20;;;12.00;;
22904;SDS011;11619;50.140;8.518;2022-12-07T06:03:03;16.02;;;12.43;;
22904;SDS011;11619;50.140;8.518;2022-12-07T06:05:29;16.35;;;13.15;;
22904;SDS011;11619;50.140;8.518;2022-12-07T06:07:56;17.30;;;12.75;;
22904;SDS011;11619;50.140;8.518;2022-12-07T06:10:30;17.35;;;13.60;;
22904;SDS011;11619;50.140;8.518;2022-12-07T06:12:57;17.95;;;13.48;;
22904;SDS011;11619;50.140;8.518;2022-12-07T06:15:23;18.05;;;13.98;;
22904;SDS011;11619;50.140;8.518;2022-12-07T06:17:50;16.38;;;13.70;;
22904;SDS011;11619;50.140;8.518;2022-12-07T06:20:16;17.02;;;13.48;;
22904;SDS011;11619;50.140;8.518;2022-12-07T06:22:42;14.98;;;12.45;;
22904;SDS011;11619;50.140;8.518;2022-12-07T06:25:09;15.93;;;13.70;;
22904;SDS011;11619;50.140;8.518;2022-12-07T06:27:35;17.30;;;12.65;;
22904;SDS011;11619;50.140;8.518;2022-12-07T06:30:02;19.80;;;13.25;;
22904;SDS011;11619;50.140;8.518;2022-12-07T06:32:33;16.63;;;12.10;;
22904;SDS011;11619;50.140;8.518;2022-12-07T06:34:59;15.90;;;13.00;;
22904;SDS011;11619;50.140;8.518;2022-12-07T06:37:26;15.75;;;12.82;;
22904;SDS011;11619;50.140;8.518;2022-12-07T06:39:53;17.27;;;13.73;;
22904;SDS011;11619;50.140;8.518;2022-12-07T06:42:19;19.00;;;13.80;;
22904;SDS011;11619;50.140;8.518;2022-12-07T06:44:46;18.65;;;12.95;;
22904;SDS011;11619;50.140;8.518;2022-12-07T06:47:12;14.65;;;12.75;;
22904;SDS011;11619;50.140;8.518;2022-12-07T06:49:58;16.45;;;12.38;;
22904;SDS011;11619;50.140;8.518;2022-12-07T06:52:25;16.23;;;13.55;;
22904;SDS011;11619;50.140;8.518;2022-12-07T06:54:52;16.23;;;12.98;;
22904;SDS011;11619;50.140;8.518;2022-12-07T06:57:18;16.20;;;13.43;;
22904;SDS011;11619;50.140;8.518;2022-12-07T06:59:46;18.23;;;12.90;;
22904;SDS011;11619;50.140;8.518;2022-12-07T07:02:12;17.27;;;13.43;;
22904;SDS011;11619;50.140;8.518;2022-12-07T07:04:39;14.65;;;12.40;;
22904;SDS011;11619;50.140;8.518;2022-12-07T07:07:05;17.20;;;12.63;;
22904;SDS011;11619;50.140;8.518;2022-12-07T07:09:32;14.90;;;12.65;;
22904;SDS011;11619;50.140;8.518;2022-12-07T07:11:58;14.68;;;12.93;;
22904;SDS011;11619;50.140;8.518;2022-12-07T07:14:25;16.60;;;12.90;;
22904;SDS011;11619;50.140;8.518;2022-12-07T07:16:51;14.43;;;12.52;;
22904;SDS011;11619;50.140;8.518;2022-12-07T07:19:18;15.38;;;13.18;;
22904;SDS011;11619;50.140;8.518;2022-12-07T07:21:44;14.15;;;11.10;;
22904;SDS011;11619;50.140;8.518;2022-12-07T07:24:11;14.48;;;11.85;;
22904;SDS011;11619;50.140;8.518;2022-12-07T07:26:37;15.85;;;12.05;;
22904;SDS011;11619;50.140;8.518;2022-12-07T07:29:03;17.23;;;12.38;;
22904;SDS011;11619;50.140;8.518;2022-12-07T07:31:30;18.40;;;11.32;;
22904;SDS011;11619;50.140;8.518;2022-12-07T07:33:56;17.13;;;11.05;;
22904;SDS011;11619;50.140;8.518;2022-12-07T07:36:23;11.88;;;9.98;;
22904;SDS011;11619;50.140;8.518;2022-12-07T07:38:49;12.27;;;9.73;;
22904;SDS011;11619;50.140;8.518;2022-12-07T07:41:16;11.32;;;9.63;;
22904;SDS011;11619;50.140;8.518;2022-12-07T07:43:42;11.18;;;9.35;;
22904;SDS011;11619;50.140;8.518;2022-12-07T07:46:09;12.70;;;10.60;;
22904;SDS011;11619;50.140;8.518;2022-12-07T07:48:35;13.88;;;12.45;;
22904;SDS011;11619;50.140;8.518;2022-12-07T07:51:04;13.10;;;10.07;;
22904;SDS011;11619;50.140;8.518;2022-12-07T07:53:32;9.88;;;8.60;;
22904;SDS011;11619;50.140;8.518;2022-12-07T07:55:59;12.70;;;9.40;;
22904;SDS011;11619;50.140;8.518;2022-12-07T07:58:25;11.32;;;9.98;;
22904;SDS011;11619;50.140;8.518;2022-12-07T08:00:51;11.07;;;9.32;;
22904;SDS011;11619;50.140;8.518;2022-12-07T08:03:18;10.65;;;8.80;;
22904;SDS011;11619;50.140;8.518;2022-12-07T08:05:44;10.55;;;8.80;;
22904;SDS011;11619;50.140;8.518;2022-12-07T08:08:11;9.73;;;8.73;;
22904;SDS011;11619;50.140;8.518;2022-12-07T08:10:38;12.18;;;8.60;;
22904;SDS011;11619;50.140;8.518;2022-12-07T08:13:04;10.85;;;9.30;;
22904;SDS011;11619;50.140;8.518;2022-12-07T08:15:37;10.52;;;8.55;;
22904;SDS011;11619;50.140;8.518;2022-12-07T08:18:04;12.13;;;9.32;;
22904;SDS011;11619;50.140;8.518;2022-12-07T08:20:31;10.00;;;8.98;;
22904;SDS011;11619;50.140;8.518;2022-12-07T08:22:58;11.20;;;8.63;;
22904;SDS011;11619;50.140;8.518;2022-12-07T08:25:25;10.35;;;7.80;;
22904;SDS011;11619;50.140;8.518;2022-12-07T08:27:52;9.63;;;7.88;;
22904;SDS011;11619;50.140;8.518;2022-12-07T08:30:19;8.25;;;7.45;;
22904;SDS011;11619;50.140;8.518;2022-12-07T08:32:47;8.73;;;7.75;;
22904;SDS011;11619;50.140;8.518;2022-12-07T08:35:14;10.68;;;8.93;;
22904;SDS011;11619;50.140;8.518;2022-12-07T08:37:40;14.13;;;10.38;;
22904;SDS011;11619;50.140;8.518;2022-12-07T08:40:08;12.68;;;10.60;;
22904;SDS011;11619;50.140;8.518;2022-12-07T08:42:35;15.60;;;11.45;;
22904;SDS011;11619;50.140;8.518;2022-12-07T08:45:06;16.00;;;10.70;;
22904;SDS011;11619;50.140;8.518;2022-12-07T08:47:35;12.35;;;10.65;;
22904;SDS011;11619;50.140;8.518;2022-12-07T08:50:02;12.20;;;9.95;;
22904;SDS011;11619;50.140;8.518;2022-12-07T08:52:30;11.95;;;9.55;;
22904;SDS011;11619;50.140;8.518;2022-12-07T08:54:58;14.35;;;10.45;;
22904;SDS011;11619;50.140;8.518;2022-12-07T08:57:25;14.38;;;10.93;;
22904;SDS011;11619;50.140;8.518;2022-12-07T08:59:52;12.23;;;10.30;;
22904;SDS011;11619;50.140;8.518;2022-12-07T09:02:19;11.98;;;10.02;;
22904;SDS011;11619;50.140;8.518;2022-12-07T09:04:45;12.57;;;10.98;;
22904;SDS011;11619;50.140;8.518;2022-12-07T09:07:12;15.38;;;12.00;;
22904;SDS011;11619;50.140;8.518;2022-12-07T09:09:38;12.35;;;9.30;;
22904;SDS011;11619;50.140;8.518;2022-12-07T09:12:05;8.32;;;7.03;;
22904;SDS011;11619;50.140;8.518;2022-12-07T09:14:31;8.50;;;7.00;;
22904;SDS011;11619;50.140;8.518;2022-12-07T09:17:05;7.57;;;5.97;;
22904;SDS011;11619;50.140;8.518;2022-12-07T09:19:35;11.00;;;5.50;;
22904;SDS011;11619;50.140;8.518;2022-12-07T09:22:02;9.27;;;5.90;;
22904;SDS011;11619;50.140;8.518;2022-12-07T09:24:31;8.32;;;5.57;;
22904;SDS011;11619;50.140;8.518;2022-12-07T09:26:57;8.70;;;5.82;;
22904;SDS011;11619;50.140;8.518;2022-12-07T09:29:24;7.32;;;5.65;;
22904;SDS011;11619;50.140;8.518;2022-12-07T09:31:51;6.85;;;6.13;;
22904;SDS011;11619;50.140;8.518;2022-12-07T09:34:17;6.75;;;5.70;;
22904;SDS011;11619;50.140;8.518;2022-12-07T09:36:44;6.18;;;4.97;;
22904;SDS011;11619;50.140;8.518;2022-12-07T09:39:10;6.25;;;5.50;;
22904;SDS011;11619;50.140;8.518;2022-12-07T09:41:37;5.60;;;4.90;;
22904;SDS011;11619;50.140;8.518;2022-12-07T09:44:06;4.68;;;3.97;;
22904;SDS011;11619;50.140;8.518;2022-12-07T09:46:36;5.28;;;4.22;;
22904;SDS011;11619;50.140;8.518;2022-12-07T09:49:05;5.90;;;4.05;;
22904;SDS011;11619;50.140;8.518;2022-12-07T09:51:37;5.90;;;4.10;;
22904;SDS011;11619;50.140;8.518;2022-12-07T09:54:04;5.30;;;4.57;;
22904;SDS011;11619;50.140;8.518;2022-12-07T09:56:30;5.90;;;4.13;;
22904;SDS011;11619;50.140;8.518;2022-12-07T09:59:00;5.95;;;4.22;;
22904;SDS011;11619;50.140;8.518;2022-12-07T10:01:29;6.43;;;3.97;;
22904;SDS011;11619;50.140;8.518;2022-12-07T10:06:38;4.70;;;3.60;;
22904;SDS011;11619;50.140;8.518;2022-12-07T10:09:38;4.90;;;4.22;;
22904;SDS011;11619;50.140;8.518;2022-12-07T10:12:08;5.75;;;3.90;;
22904;SDS011;11619;50.140;8.518;2022-12-07T10:14:36;5.10;;;3.50;;
22904;SDS011;11619;50.140;8.518;2022-12-07T10:17:35;5.57;;;4.25;;
22904;SDS011;11619;50.140;8.518;2022-12-07T10:20:13;4.50;;;3.78;;
22904;SDS011;11619;50.140;8.518;2022-12-07T10:22:56;4.45;;;4.05;;
22904;SDS011;11619;50.140;8.518;2022-12-07T10:25:28;4.45;;;3.70;;
22904;SDS011;11619;50.140;8.518;2022-12-07T10:35:56;5.50;;;3.50;;
22904;SDS011;11619;50.140;8.518;2022-12-07T10:38:24;5.88;;;3.10;;
22904;SDS011;11619;50.140;8.518;2022-12-07T10:41:05;4.65;;;3.13;;
22904;SDS011;11619;50.140;8.518;2022-12-07T10:43:33;4.85;;;3.35;;
22904;SDS011;11619;50.140;8.518;2022-12-07T10:46:07;7.25;;;3.08;;
22904;SDS011;11619;50.140;8.518;2022-12-07T10:49:23;7.78;;;3.05;;
22904;SDS011;11619;50.140;8.518;2022-12-07T10:54:55;3.03;;;2.70;;
22904;SDS011;11619;50.140;8.518;2022-12-07T10:57:32;6.63;;;3.00;;
22904;SDS011;11619;50.140;8.518;2022-12-07T11:00:09;5.70;;;3.08;;
22904;SDS011;11619;50.140;8.518;2022-12-07T11:10:36;5.75;;;3.67;;
22904;SDS011;11619;50.140;8.518;2022-12-07T11:15:57;4.43;;;3.30;;
22904;SDS011;11619;50.140;8.518;2022-12-07T11:18:38;4.97;;;3.50;;
22904;SDS011;11619;50.140;8.518;2022-12-07T11:23:48;7.32;;;3.58;;
22904;SDS011;11619;50.140;8.518;2022-12-07T11:30:08;6.47;;;2.80;;
22904;SDS011;11619;50.140;8.518;2022-12-07T11:32:43;6.30;;;3.38;;
22904;SDS011;11619;50.140;8.518;2022-12-07T11:35:23;4.82;;;3.00;;
22904;SDS011;11619;50.140;8.518;2022-12-07T11:38:19;5.95;;;3.00;;
22904;SDS011;11619;50.140;8.518;2022-12-07T11:40:56;4.85;;;2.83;;
22904;SDS011;11619;50.140;8.518;2022-12-07T11:43:52;5.32;;;3.83;;
22904;SDS011;11619;50.140;8.518;2022-12-07T11:46:22;4.63;;;2.85;;
22904;SDS011;11619;50.140;8.518;2022-12-07T11:48:58;8.20;;;3.40;;
22904;SDS011;11619;50.140;8.518;2022-12-07T11:51:29;5.18;;;3.28;;
22904;SDS011;11619;50.140;8.518;2022-12-07T11:54:01;5.85;;;3.25;;
22904;SDS011;11619;50.140;8.518;2022-12-07T11:56:31;5.47;;;2.97;;
22904;SDS011;11619;50.140;8.518;2022-12-07T11:59:06;6.05;;;3.30;;
22904;SDS011;11619;50.140;8.518;2022-12-07T12:01:48;5.28;;;2.97;;
22904;SDS011;11619;50.140;8.518;2022-12-07T12:04:27;5.30;;;2.97;;
22904;SDS011;11619;50.140;8.518;2022-12-07T12:07:15;4.35;;;3.17;;
22904;SDS011;11619;50.140;8.518;2022-12-07T12:10:05;5.03;;;3.00;;
22904;SDS011;11619;50.140;8.518;2022-12-07T12:21:15;4.47;;;2.30;;
22904;SDS011;11619;50.140;8.518;2022-12-07T12:23:50;3.90;;;1.90;;
22904;SDS011;11619;50.140;8.518;2022-12-07T12:26:21;7.57;;;2.10;;
22904;SDS011;11619;50.140;8.518;2022-12-07T12:28:54;4.68;;;2.15;;
22904;SDS011;11619;50.140;8.518;2022-12-07T12:33:55;3.38;;;1.80;;
22904;SDS011;11619;50.140;8.518;2022-12-07T12:36:28;4.65;;;2.15;;
22904;SDS011;11619;50.140;8.518;2022-12-07T12:39:16;3.85;;;1.98;;
22904;SDS011;11619;50.140;8.518;2022-12-07T12:51:57;8.68;;;2.40;;
22904;SDS011;11619;50.140;8.518;2022-12-07T12:54:31;3.42;;;2.13;;
22904;SDS011;11619;50.140;8.518;2022-12-07T13:05:17;5.95;;;2.30;;
22904;SDS011;11619;50.140;8.518;2022-12-07T13:10:24;5.63;;;2.20;;
22904;SDS011;11619;50.140;8.518;2022-12-07T13:15:42;3.30;;;2.13;;
22904;SDS011;11619;50.140;8.518;2022-12-07T13:20:48;2.72;;;1.98;;
22904;SDS011;11619;50.140;8.518;2022-12-07T13:25:54;2.53;;;1.77;;
22904;SDS011;11619;50.140;8.518;2022-12-07T13:28:26;2.92;;;1.83;;
22904;SDS011;11619;50.140;8.518;2022-12-07T13:31:04;3.05;;;2.03;;
22904;SDS011;11619;50.140;8.518;2022-12-07T13:33:37;3.38;;;2.17;;
22904;SDS011;11619;50.140;8.518;2022-12-07T13:36:04;2.15;;;1.90;;
22904;SDS011;11619;50.140;8.518;2022-12-07T13:38:32;4.80;;;2.05;;
22904;SDS011;11619;50.140;8.518;2022-12-07T13:41:03;3.10;;;2.05;;
22904;SDS011;11619;50.140;8.518;2022-12-07T13:43:30;5.10;;;2.40;;
22904;SDS011;11619;50.140;8.518;2022-12-07T13:45:57;5.10;;;2.55;;
22904;SDS011;11619;50.140;8.518;2022-12-07T13:48:27;5.40;;;2.70;;
22904;SDS011;11619;50.140;8.518;2022-12-07T13:51:02;4.55;;;2.72;;
22904;SDS011;11619;50.140;8.518;2022-12-07T13:53:29;3.42;;;2.83;;
22904;SDS011;11619;50.140;8.518;2022-12-07T13:55:57;6.63;;;2.78;;
22904;SDS011;11619;50.140;8.518;2022-12-07T13:58:25;6.78;;;2.80;;
22904;SDS011;11619;50.140;8.518;2022-12-07T14:00:52;4.18;;;2.80;;
22904;SDS011;11619;50.140;8.518;2022-12-07T14:03:25;6.35;;;3.20;;
22904;SDS011;11619;50.140;8.518;2022-12-07T14:09:05;4.18;;;2.85;;
22904;SDS011;11619;50.140;8.518;2022-12-07T14:11:40;5.60;;;2.63;;
22904;SDS011;11619;50.140;8.518;2022-12-07T14:14:11;5.88;;;2.65;;
22904;SDS011;11619;50.140;8.518;2022-12-07T14:16:40;8.23;;;3.20;;
22904;SDS011;11619;50.140;8.518;2022-12-07T14:27:30;6.63;;;2.47;;
22904;SDS011;11619;50.140;8.518;2022-12-07T14:30:03;5.25;;;2.72;;
22904;SDS011;11619;50.140;8.518;2022-12-07T14:32:30;4.95;;;2.92;;
22904;SDS011;11619;50.140;8.518;2022-12-07T14:37:37;6.70;;;2.78;;
22904;SDS011;11619;50.140;8.518;2022-12-07T14:40:04;2.65;;;2.25;;
22904;SDS011;11619;50.140;8.518;2022-12-07T14:42:32;3.67;;;2.28;;
22904;SDS011;11619;50.140;8.518;2022-12-07T14:44:59;3.90;;;2.38;;
22904;SDS011;11619;50.140;8.518;2022-12-07T14:47:26;3.08;;;1.90;;
22904;SDS011;11619;50.140;8.518;2022-12-07T14:50:13;5.85;;;2.92;;
22904;SDS011;11619;50.140;8.518;2022-12-07T14:52:42;2.25;;;1.95;;
22904;SDS011;11619;50.140;8.518;2022-12-07T14:55:30;3.17;;;2.03;;
22904;SDS011;11619;50.140;8.518;2022-12-07T14:57:57;4.60;;;2.67;;
22904;SDS011;11619;50.140;8.518;2022-12-07T15:00:26;5.93;;;2.58;;
22904;SDS011;11619;50.140;8.518;2022-12-07T15:02:53;5.38;;;2.95;;
22904;SDS011;11619;50.140;8.518;2022-12-07T15:05:20;6.70;;;3.63;;
22904;SDS011;11619;50.140;8.518;2022-12-07T15:07:47;4.78;;;3.40;;
22904;SDS011;11619;50.140;8.518;2022-12-07T15:10:16;8.02;;;3.45;;
22904;SDS011;11619;50.140;8.518;2022-12-07T15:12:49;6.40;;;3.17;;
22904;SDS011;11619;50.140;8.518;2022-12-07T15:15:17;4.72;;;2.53;;
22904;SDS011;11619;50.140;8.518;2022-12-07T15:17:43;4.55;;;3.15;;
22904;SDS011;11619;50.140;8.518;2022-12-07T15:20:13;7.35;;;2.80;;
22904;SDS011;11619;50.140;8.518;2022-12-07T15:22:42;6.45;;;3.28;;
22904;SDS011;11619;50.140;8.518;2022-12-07T15:25:09;7.55;;;3.90;;
22904;SDS011;11619;50.140;8.518;2022-12-07T15:27:40;5.25;;;3.50;;
22904;SDS011;11619;50.140;8.518;2022-12-07T15:30:07;6.80;;;3.25;;
22904;SDS011;11619;50.140;8.518;2022-12-07T15:32:34;5.32;;;2.83;;
22904;SDS011;11619;50.140;8.518;2022-12-07T15:35:00;5.50;;;3.17;;
22904;SDS011;11619;50.140;8.518;2022-12-07T15:37:27;7.57;;;4.97;;
22904;SDS011;11619;50.140;8.518;2022-12-07T15:39:53;5.03;;;3.60;;
22904;SDS011;11619;50.140;8.518;2022-12-07T15:42:20;6.72;;;4.22;;
22904;SDS011;11619;50.140;8.518;2022-12-07T15:44:46;5.15;;;4.03;;
22904;SDS011;11619;50.140;8.518;2022-12-07T15:47:36;3.92;;;3.33;;
22904;SDS011;11619;50.140;8.518;2022-12-07T15:50:24;3.17;;;2.72;;
22904;SDS011;11619;50.140;8.518;2022-12-07T15:52:50;5.50;;;3.17;;
22904;SDS011;11619;50.140;8.518;2022-12-07T15:55:17;7.93;;;3.20;;
22904;SDS011;11619;50.140;8.518;2022-12-07T15:57:43;4.30;;;3.25;;
22904;SDS011;11619;50.140;8.518;2022-12-07T16:00:10;6.75;;;3.78;;
22904;SDS011;11619;50.140;8.518;2022-12-07T16:02:36;7.82;;;4.10;;
22904;SDS011;11619;50.140;8.518;2022-12-07T16:05:05;4.60;;;3.67;;
22904;SDS011;11619;50.140;8.518;2022-12-07T16:07:32;3.88;;;3.22;;
22904;SDS011;11619;50.140;8.518;2022-12-07T16:09:58;6.63;;;3.75;;
22904;SDS011;11619;50.140;8.518;2022-12-07T16:12:25;4.32;;;3.10;;
22904;SDS011;11619;50.140;8.518;2022-12-07T16:14:51;6.40;;;4.13;;
22904;SDS011;11619;50.140;8.518;2022-12-07T16:17:18;6.95;;;4.10;;
22904;SDS011;11619;50.140;8.518;2022-12-07T16:19:44;4.25;;;3.47;;
22904;SDS011;11619;50.140;8.518;2022-12-07T16:22:10;5.43;;;4.38;;
22904;SDS011;11619;50.140;8.518;2022-12-07T16:24:37;6.72;;;4.28;;
22904;SDS011;11619;50.140;8.518;2022-12-07T16:27:03;4.72;;;3.83;;
22904;SDS011;11619;50.140;8.518;2022-12-07T16:29:30;7.55;;;5.45;;
22904;SDS011;11619;50.140;8.518;2022-12-07T16:31:56;20.75;;;14.38;;
22904;SDS011;11619;50.140;8.518;2022-12-07T16:34:23;16.33;;;11.27;;
22904;SDS011;11619;50.140;8.518;2022-12-07T16:36:49;6.43;;;3.55;;
22904;SDS011;11619;50.140;8.518;2022-12-07T16:39:32;3.05;;;2.75;;
22904;SDS011;11619;50.140;8.518;2022-12-07T16:41:59;7.03;;;3.13;;